sensor_id;sensor_type;location;lat;lon;timestamp;P1;durP1;ratioP1;P2;durP2;ratioP2
76155;SDS011;64906;51.290;7.348;2023-04-30T00:02:07;10.97;;;6.73;;
76155;SDS011;64906;51.290;7.348;2023-04-30T00:04:33;9.73;;;6.75;;
76155;SDS011;64906;51.290;7.348;2023-04-30T00:06:58;11.43;;;6.88;;
76155;SDS011;64906;51.290;7.348;2023-04-30T00:09:23;10.37;;;6.67;;
76155;SDS011;64906;51.290;7.348;2023-04-30T00:11:48;11.93;;;7.90;;
76155;SDS011;64906;51.290;7.348;2023-04-30T00:14:14;9.80;;;6.50;;
76155;SDS011;64906;51.290;7.348;2023-04-30T00:16:39;10.98;;;6.82;;
76155;SDS011;64906;51.290;7.348;2023-04-30T00:19:05;10.85;;;6.95;;
76155;SDS011;64906;51.290;7.348;2023-04-30T00:21:30;10.13;;;6.80;;
76155;SDS011;64906;51.290;7.348;2023-04-30T00:23:56;10.85;;;6.50;;
76155;SDS011;64906;51.290;7.348;2023-04-30T00:26:21;11.02;;;7.40;;
76155;SDS011;64906;51.290;7.348;2023-04-30T00:28:46;10.37;;;6.20;;
76155;SDS011;64906;51.290;7.348;2023-04-30T00:31:12;9.63;;;6.23;;
76155;SDS011;64906;51.290;7.348;2023-04-30T00:33:37;12.03;;;7.30;;
76155;SDS011;64906;51.290;7.348;2023-04-30T00:36:02;11.25;;;6.03;;
76155;SDS011;64906;51.290;7.348;2023-04-30T00:38:28;10.70;;;6.47;;
76155;SDS011;64906;51.290;7.348;2023-04-30T00:40:53;10.03;;;6.43;;
76155;SDS011;64906;51.290;7.348;2023-04-30T00:43:19;10.50;;;6.35;;
76155;SDS011;64906;51.290;7.348;2023-04-30T00:45:44;11.27;;;6.90;;
76155;SDS011;64906;51.290;7.348;2023-04-30T00:48:09;9.90;;;6.50;;
76155;SDS011;64906;51.290;7.348;2023-04-30T00:50:35;12.95;;;6.85;;
76155;SDS011;64906;51.290;7.348;2023-04-30T00:53:01;10.30;;;6.50;;
76155;SDS011;64906;51.290;7.348;2023-04-30T00:55:26;9.38;;;5.93;;
76155;SDS011;64906;51.290;7.348;2023-04-30T00:57:52;11.27;;;6.35;;
76155;SDS011;64906;51.290;7.348;2023-04-30T01:00:18;9.15;;;6.05;;
76155;SDS011;64906;51.290;7.348;2023-04-30T01:02:44;10.40;;;6.75;;
76155;SDS011;64906;51.290;7.348;2023-04-30T01:05:09;10.48;;;6.47;;
76155;SDS011;64906;51.290;7.348;2023-04-30T01:07:35;10.02;;;6.30;;
76155;SDS011;64906;51.290;7.348;2023-04-30T01:10:08;10.23;;;6.15;;
76155;SDS011;64906;51.290;7.348;2023-04-30T01:20:43;9.45;;;5.90;;
76155;SDS011;64906;51.290;7.348;2023-04-30T01:26:14;11.18;;;6.38;;
76155;SDS011;64906;51.290;7.348;2023-04-30T01:31:17;9.23;;;6.40;;
76155;SDS011;64906;51.290;7.348;2023-04-30T01:33:43;8.65;;;5.50;;
76155;SDS011;64906;51.290;7.348;2023-04-30T01:36:11;9.47;;;6.00;;
76155;SDS011;64906;51.290;7.348;2023-04-30T01:41:56;8.85;;;5.78;;
76155;SDS011;64906;51.290;7.348;2023-04-30T01:47:06;9.02;;;5.47;;
76155;SDS011;64906;51.290;7.348;2023-04-30T01:49:41;9.48;;;5.80;;
76155;SDS011;64906;51.290;7.348;2023-04-30T01:52:28;9.85;;;5.75;;
76155;SDS011;64906;51.290;7.348;2023-04-30T01:55:04;8.90;;;5.63;;
76155;SDS011;64906;51.290;7.348;2023-04-30T01:57:36;8.75;;;5.45;;
76155;SDS011;64906;51.290;7.348;2023-04-30T02:00:05;9.05;;;5.55;;
76155;SDS011;64906;51.290;7.348;2023-04-30T02:02:34;9.48;;;5.45;;
76155;SDS011;64906;51.290;7.348;2023-04-30T02:05:00;8.43;;;5.03;;
76155;SDS011;64906;51.290;7.348;2023-04-30T02:07:58;8.40;;;5.43;;
76155;SDS011;64906;51.290;7.348;2023-04-30T02:10:18;9.60;;;5.40;;
76155;SDS011;64906;51.290;7.348;2023-04-30T02:12:45;8.70;;;5.55;;
76155;SDS011;64906;51.290;7.348;2023-04-30T02:15:10;8.88;;;5.22;;
76155;SDS011;64906;51.290;7.348;2023-04-30T02:17:36;8.85;;;5.25;;
76155;SDS011;64906;51.290;7.348;2023-04-30T02:20:01;7.53;;;5.00;;
76155;SDS011;64906;51.290;7.348;2023-04-30T02:22:27;7.93;;;5.10;;
76155;SDS011;64906;51.290;7.348;2023-04-30T02:24:52;9.27;;;5.70;;
76155;SDS011;64906;51.290;7.348;2023-04-30T02:27:19;9.07;;;5.40;;
76155;SDS011;64906;51.290;7.348;2023-04-30T02:29:46;9.20;;;5.40;;
76155;SDS011;64906;51.290;7.348;2023-04-30T02:32:11;8.15;;;5.10;;
76155;SDS011;64906;51.290;7.348;2023-04-30T02:34:36;8.17;;;5.23;;
76155;SDS011;64906;51.290;7.348;2023-04-30T02:37:02;7.73;;;4.80;;
76155;SDS011;64906;51.290;7.348;2023-04-30T02:39:27;7.90;;;4.80;;
76155;SDS011;64906;51.290;7.348;2023-04-30T02:41:52;8.47;;;5.27;;
76155;SDS011;64906;51.290;7.348;2023-04-30T02:44:18;8.40;;;4.67;;
76155;SDS011;64906;51.290;7.348;2023-04-30T02:46:43;8.18;;;4.95;;
76155;SDS011;64906;51.290;7.348;2023-04-30T02:49:08;8.07;;;5.27;;
76155;SDS011;64906;51.290;7.348;2023-04-30T02:51:34;7.93;;;5.10;;
76155;SDS011;64906;51.290;7.348;2023-04-30T02:53:59;9.67;;;5.03;;
76155;SDS011;64906;51.290;7.348;2023-04-30T02:56:24;7.57;;;4.80;;
76155;SDS011;64906;51.290;7.348;2023-04-30T02:58:50;8.30;;;5.05;;
76155;SDS011;64906;51.290;7.348;2023-04-30T03:01:15;8.52;;;4.70;;
76155;SDS011;64906;51.290;7.348;2023-04-30T03:03:41;8.18;;;4.68;;
76155;SDS011;64906;51.290;7.348;2023-04-30T03:06:06;7.57;;;4.57;;
76155;SDS011;64906;51.290;7.348;2023-04-30T03:08:31;7.40;;;4.87;;
76155;SDS011;64906;51.290;7.348;2023-04-30T03:10:56;8.67;;;5.17;;
76155;SDS011;64906;51.290;7.348;2023-04-30T03:13:22;8.20;;;4.57;;
76155;SDS011;64906;51.290;7.348;2023-04-30T03:15:55;7.65;;;4.57;;
76155;SDS011;64906;51.290;7.348;2023-04-30T03:18:21;7.45;;;4.78;;
76155;SDS011;64906;51.290;7.348;2023-04-30T03:20:46;7.17;;;4.60;;
76155;SDS011;64906;51.290;7.348;2023-04-30T03:23:11;7.30;;;4.63;;
76155;SDS011;64906;51.290;7.348;2023-04-30T03:25:37;7.23;;;4.30;;
76155;SDS011;64906;51.290;7.348;2023-04-30T03:28:02;7.73;;;4.67;;
76155;SDS011;64906;51.290;7.348;2023-04-30T03:30:27;8.50;;;4.90;;
76155;SDS011;64906;51.290;7.348;2023-04-30T03:32:53;7.40;;;4.30;;
76155;SDS011;64906;51.290;7.348;2023-04-30T03:35:18;6.73;;;4.30;;
76155;SDS011;64906;51.290;7.348;2023-04-30T03:37:43;7.30;;;4.53;;
76155;SDS011;64906;51.290;7.348;2023-04-30T03:40:08;7.40;;;4.27;;
76155;SDS011;64906;51.290;7.348;2023-04-30T03:42:34;7.03;;;4.13;;
76155;SDS011;64906;51.290;7.348;2023-04-30T03:44:59;8.30;;;4.43;;
76155;SDS011;64906;51.290;7.348;2023-04-30T03:47:25;7.73;;;4.70;;
76155;SDS011;64906;51.290;7.348;2023-04-30T03:49:50;7.17;;;4.50;;
76155;SDS011;64906;51.290;7.348;2023-04-30T03:52:19;7.00;;;4.22;;
76155;SDS011;64906;51.290;7.348;2023-04-30T03:54:44;6.70;;;4.10;;
76155;SDS011;64906;51.290;7.348;2023-04-30T03:57:09;7.63;;;4.63;;
76155;SDS011;64906;51.290;7.348;2023-04-30T03:59:36;6.60;;;3.95;;
76155;SDS011;64906;51.290;7.348;2023-04-30T04:02:02;8.23;;;4.83;;
76155;SDS011;64906;51.290;7.348;2023-04-30T04:04:27;7.37;;;4.80;;
76155;SDS011;64906;51.290;7.348;2023-04-30T04:06:53;7.20;;;4.30;;
76155;SDS011;64906;51.290;7.348;2023-04-30T04:09:18;6.87;;;4.13;;
76155;SDS011;64906;51.290;7.348;2023-04-30T04:11:43;6.72;;;4.07;;
76155;SDS011;64906;51.290;7.348;2023-04-30T04:14:09;7.17;;;4.10;;
76155;SDS011;64906;51.290;7.348;2023-04-30T04:16:34;6.50;;;4.37;;
76155;SDS011;64906;51.290;7.348;2023-04-30T04:18:59;8.27;;;4.13;;
76155;SDS011;64906;51.290;7.348;2023-04-30T04:21:25;6.33;;;3.70;;
76155;SDS011;64906;51.290;7.348;2023-04-30T04:23:50;7.43;;;4.10;;
76155;SDS011;64906;51.290;7.348;2023-04-30T04:26:16;6.78;;;4.15;;
76155;SDS011;64906;51.290;7.348;2023-04-30T04:28:45;6.55;;;4.00;;
76155;SDS011;64906;51.290;7.348;2023-04-30T04:31:11;6.40;;;4.10;;
76155;SDS011;64906;51.290;7.348;2023-04-30T04:33:36;6.70;;;3.80;;
76155;SDS011;64906;51.290;7.348;2023-04-30T04:36:02;8.02;;;4.25;;
76155;SDS011;64906;51.290;7.348;2023-04-30T04:38:27;7.57;;;3.85;;
76155;SDS011;64906;51.290;7.348;2023-04-30T04:40:53;7.27;;;3.90;;
76155;SDS011;64906;51.290;7.348;2023-04-30T04:43:18;7.13;;;4.43;;
76155;SDS011;64906;51.290;7.348;2023-04-30T04:45:44;6.82;;;4.28;;
76155;SDS011;64906;51.290;7.348;2023-04-30T04:48:09;6.10;;;3.58;;
76155;SDS011;64906;51.290;7.348;2023-04-30T04:50:35;6.30;;;3.90;;
76155;SDS011;64906;51.290;7.348;2023-04-30T04:53:00;5.60;;;3.50;;
76155;SDS011;64906;51.290;7.348;2023-04-30T04:55:25;6.87;;;4.33;;
76155;SDS011;64906;51.290;7.348;2023-04-30T04:57:51;6.72;;;3.92;;
76155;SDS011;64906;51.290;7.348;2023-04-30T05:00:16;6.30;;;3.63;;
76155;SDS011;64906;51.290;7.348;2023-04-30T05:02:42;6.03;;;3.65;;
76155;SDS011;64906;51.290;7.348;2023-04-30T05:05:08;6.17;;;3.43;;
76155;SDS011;64906;51.290;7.348;2023-04-30T05:07:34;6.18;;;3.58;;
76155;SDS011;64906;51.290;7.348;2023-04-30T05:09:59;6.28;;;3.67;;
76155;SDS011;64906;51.290;7.348;2023-04-30T05:12:25;5.90;;;3.57;;
76155;SDS011;64906;51.290;7.348;2023-04-30T05:14:50;5.53;;;3.27;;
76155;SDS011;64906;51.290;7.348;2023-04-30T05:17:15;6.72;;;3.75;;
76155;SDS011;64906;51.290;7.348;2023-04-30T05:19:41;6.77;;;4.23;;
76155;SDS011;64906;51.290;7.348;2023-04-30T05:22:06;5.97;;;3.75;;
76155;SDS011;64906;51.290;7.348;2023-04-30T05:24:31;6.23;;;4.07;;
76155;SDS011;64906;51.290;7.348;2023-04-30T05:26:58;6.38;;;3.58;;
76155;SDS011;64906;51.290;7.348;2023-04-30T05:29:23;6.35;;;3.80;;
76155;SDS011;64906;51.290;7.348;2023-04-30T05:31:48;5.30;;;3.30;;
76155;SDS011;64906;51.290;7.348;2023-04-30T05:34:14;6.17;;;3.57;;
76155;SDS011;64906;51.290;7.348;2023-04-30T05:36:39;5.57;;;3.22;;
76155;SDS011;64906;51.290;7.348;2023-04-30T05:39:05;6.85;;;3.85;;
76155;SDS011;64906;51.290;7.348;2023-04-30T05:41:30;5.47;;;3.47;;
76155;SDS011;64906;51.290;7.348;2023-04-30T05:43:55;5.90;;;3.50;;
76155;SDS011;64906;51.290;7.348;2023-04-30T05:46:21;6.00;;;3.27;;
76155;SDS011;64906;51.290;7.348;2023-04-30T05:48:46;5.60;;;3.13;;
76155;SDS011;64906;51.290;7.348;2023-04-30T05:51:12;5.68;;;3.25;;
76155;SDS011;64906;51.290;7.348;2023-04-30T05:53:37;5.83;;;3.60;;
76155;SDS011;64906;51.290;7.348;2023-04-30T05:56:02;6.10;;;3.58;;
76155;SDS011;64906;51.290;7.348;2023-04-30T05:58:28;5.90;;;3.20;;
76155;SDS011;64906;51.290;7.348;2023-04-30T06:00:53;5.77;;;3.17;;
76155;SDS011;64906;51.290;7.348;2023-04-30T06:03:18;6.10;;;3.50;;
76155;SDS011;64906;51.290;7.348;2023-04-30T06:05:44;5.88;;;3.20;;
76155;SDS011;64906;51.290;7.348;2023-04-30T06:08:10;6.15;;;3.33;;
76155;SDS011;64906;51.290;7.348;2023-04-30T06:10:35;6.20;;;3.47;;
76155;SDS011;64906;51.290;7.348;2023-04-30T06:13:01;5.78;;;3.33;;
76155;SDS011;64906;51.290;7.348;2023-04-30T06:15:27;6.17;;;3.20;;
76155;SDS011;64906;51.290;7.348;2023-04-30T06:17:52;5.83;;;3.27;;
76155;SDS011;64906;51.290;7.348;2023-04-30T06:20:17;5.33;;;3.27;;
76155;SDS011;64906;51.290;7.348;2023-04-30T06:22:43;4.70;;;2.90;;
76155;SDS011;64906;51.290;7.348;2023-04-30T06:25:08;5.67;;;3.23;;
76155;SDS011;64906;51.290;7.348;2023-04-30T06:27:33;5.38;;;3.03;;
76155;SDS011;64906;51.290;7.348;2023-04-30T06:29:59;5.17;;;3.10;;
76155;SDS011;64906;51.290;7.348;2023-04-30T06:32:25;5.40;;;3.08;;
76155;SDS011;64906;51.290;7.348;2023-04-30T06:34:50;5.18;;;2.90;;
76155;SDS011;64906;51.290;7.348;2023-04-30T06:37:15;4.83;;;3.00;;
76155;SDS011;64906;51.290;7.348;2023-04-30T06:39:41;5.70;;;3.20;;
76155;SDS011;64906;51.290;7.348;2023-04-30T06:42:06;5.23;;;2.87;;
76155;SDS011;64906;51.290;7.348;2023-04-30T06:44:31;5.40;;;3.13;;
76155;SDS011;64906;51.290;7.348;2023-04-30T06:46:57;5.68;;;2.85;;
76155;SDS011;64906;51.290;7.348;2023-04-30T06:49:22;5.33;;;2.90;;
76155;SDS011;64906;51.290;7.348;2023-04-30T06:51:47;4.50;;;2.67;;
76155;SDS011;64906;51.290;7.348;2023-04-30T06:54:13;5.23;;;3.37;;
76155;SDS011;64906;51.290;7.348;2023-04-30T06:56:38;5.68;;;3.40;;
76155;SDS011;64906;51.290;7.348;2023-04-30T06:59:03;5.65;;;3.17;;
76155;SDS011;64906;51.290;7.348;2023-04-30T07:01:30;4.70;;;2.75;;
76155;SDS011;64906;51.290;7.348;2023-04-30T07:03:55;4.65;;;2.70;;
76155;SDS011;64906;51.290;7.348;2023-04-30T07:06:20;4.87;;;2.60;;
76155;SDS011;64906;51.290;7.348;2023-04-30T07:08:46;4.90;;;2.90;;
76155;SDS011;64906;51.290;7.348;2023-04-30T07:11:12;4.78;;;2.80;;
76155;SDS011;64906;51.290;7.348;2023-04-30T07:13:37;5.50;;;2.85;;
76155;SDS011;64906;51.290;7.348;2023-04-30T07:16:03;5.00;;;2.77;;
76155;SDS011;64906;51.290;7.348;2023-04-30T07:18:29;5.50;;;2.83;;
76155;SDS011;64906;51.290;7.348;2023-04-30T07:20:55;5.20;;;2.90;;
76155;SDS011;64906;51.290;7.348;2023-04-30T07:23:20;4.70;;;2.60;;
76155;SDS011;64906;51.290;7.348;2023-04-30T07:25:46;4.93;;;2.90;;
76155;SDS011;64906;51.290;7.348;2023-04-30T07:28:11;4.63;;;2.57;;
76155;SDS011;64906;51.290;7.348;2023-04-30T07:30:36;4.50;;;2.67;;
76155;SDS011;64906;51.290;7.348;2023-04-30T07:33:02;4.82;;;2.78;;
76155;SDS011;64906;51.290;7.348;2023-04-30T07:35:27;5.37;;;2.80;;
76155;SDS011;64906;51.290;7.348;2023-04-30T07:37:52;5.13;;;2.60;;
76155;SDS011;64906;51.290;7.348;2023-04-30T07:40:17;4.83;;;2.70;;
76155;SDS011;64906;51.290;7.348;2023-04-30T07:42:43;5.10;;;2.73;;
76155;SDS011;64906;51.290;7.348;2023-04-30T07:45:11;5.07;;;2.83;;
76155;SDS011;64906;51.290;7.348;2023-04-30T07:47:37;4.97;;;2.60;;
76155;SDS011;64906;51.290;7.348;2023-04-30T07:50:03;4.70;;;2.47;;
76155;SDS011;64906;51.290;7.348;2023-04-30T07:52:28;5.18;;;2.90;;
76155;SDS011;64906;51.290;7.348;2023-04-30T07:54:54;4.90;;;2.70;;
76155;SDS011;64906;51.290;7.348;2023-04-30T07:57:19;4.30;;;2.50;;
76155;SDS011;64906;51.290;7.348;2023-04-30T07:59:44;4.67;;;2.77;;
76155;SDS011;64906;51.290;7.348;2023-04-30T08:02:10;5.40;;;2.60;;
76155;SDS011;64906;51.290;7.348;2023-04-30T08:04:35;4.83;;;2.70;;
76155;SDS011;64906;51.290;7.348;2023-04-30T08:07:00;4.73;;;2.50;;
76155;SDS011;64906;51.290;7.348;2023-04-30T08:09:26;4.55;;;2.35;;
76155;SDS011;64906;51.290;7.348;2023-04-30T08:11:52;4.97;;;2.50;;
76155;SDS011;64906;51.290;7.348;2023-04-30T08:14:17;4.85;;;2.28;;
76155;SDS011;64906;51.290;7.348;2023-04-30T08:16:44;4.60;;;2.60;;
76155;SDS011;64906;51.290;7.348;2023-04-30T08:19:09;4.35;;;2.50;;
76155;SDS011;64906;51.290;7.348;2023-04-30T08:21:34;4.22;;;2.47;;
76155;SDS011;64906;51.290;7.348;2023-04-30T08:24:00;6.32;;;2.88;;
76155;SDS011;64906;51.290;7.348;2023-04-30T08:26:25;6.95;;;4.45;;
76155;SDS011;64906;51.290;7.348;2023-04-30T08:28:51;7.73;;;4.60;;
76155;SDS011;64906;51.290;7.348;2023-04-30T08:31:16;9.00;;;5.70;;
76155;SDS011;64906;51.290;7.348;2023-04-30T08:33:42;13.10;;;8.70;;
76155;SDS011;64906;51.290;7.348;2023-04-30T08:36:07;11.13;;;7.47;;
76155;SDS011;64906;51.290;7.348;2023-04-30T08:38:32;12.50;;;8.23;;
76155;SDS011;64906;51.290;7.348;2023-04-30T08:41:10;17.13;;;8.60;;
76155;SDS011;64906;51.290;7.348;2023-04-30T08:43:37;16.75;;;10.18;;
76155;SDS011;64906;51.290;7.348;2023-04-30T08:46:03;18.48;;;10.48;;
76155;SDS011;64906;51.290;7.348;2023-04-30T08:48:29;20.55;;;10.85;;
76155;SDS011;64906;51.290;7.348;2023-04-30T08:51:02;16.33;;;11.35;;
76155;SDS011;64906;51.290;7.348;2023-04-30T08:53:29;18.23;;;11.77;;
76155;SDS011;64906;51.290;7.348;2023-04-30T08:55:55;16.77;;;10.90;;
76155;SDS011;64906;51.290;7.348;2023-04-30T08:58:21;17.13;;;11.35;;
76155;SDS011;64906;51.290;7.348;2023-04-30T09:00:47;17.40;;;11.20;;
76155;SDS011;64906;51.290;7.348;2023-04-30T09:03:12;24.05;;;13.13;;
76155;SDS011;64906;51.290;7.348;2023-04-30T09:05:38;25.98;;;14.07;;
76155;SDS011;64906;51.290;7.348;2023-04-30T09:08:04;22.67;;;14.48;;
76155;SDS011;64906;51.290;7.348;2023-04-30T09:10:32;24.45;;;14.95;;
76155;SDS011;64906;51.290;7.348;2023-04-30T09:13:04;20.80;;;13.77;;
76155;SDS011;64906;51.290;7.348;2023-04-30T09:15:31;22.98;;;14.38;;
76155;SDS011;64906;51.290;7.348;2023-04-30T09:18:14;24.67;;;13.82;;
76155;SDS011;64906;51.290;7.348;2023-04-30T09:23:25;22.80;;;14.43;;
76155;SDS011;64906;51.290;7.348;2023-04-30T09:25:51;21.65;;;13.73;;
76155;SDS011;64906;51.290;7.348;2023-04-30T09:28:16;19.42;;;12.90;;
76155;SDS011;64906;51.290;7.348;2023-04-30T09:30:42;20.42;;;13.07;;
76155;SDS011;64906;51.290;7.348;2023-04-30T09:33:07;19.13;;;12.97;;
76155;SDS011;64906;51.290;7.348;2023-04-30T09:35:34;20.85;;;13.85;;
76155;SDS011;64906;51.290;7.348;2023-04-30T09:38:01;25.05;;;14.02;;
76155;SDS011;64906;51.290;7.348;2023-04-30T09:40:36;21.30;;;13.20;;
76155;SDS011;64906;51.290;7.348;2023-04-30T09:43:04;18.88;;;12.75;;
76155;SDS011;64906;51.290;7.348;2023-04-30T09:45:40;19.23;;;12.88;;
76155;SDS011;64906;51.290;7.348;2023-04-30T09:48:07;19.67;;;12.73;;
76155;SDS011;64906;51.290;7.348;2023-04-30T09:50:37;19.60;;;12.23;;
76155;SDS011;64906;51.290;7.348;2023-04-30T09:53:04;19.52;;;12.43;;
76155;SDS011;64906;51.290;7.348;2023-04-30T09:55:31;18.60;;;12.60;;
76155;SDS011;64906;51.290;7.348;2023-04-30T09:57:58;19.30;;;14.07;;
76155;SDS011;64906;51.290;7.348;2023-04-30T10:00:24;18.13;;;12.18;;
76155;SDS011;64906;51.290;7.348;2023-04-30T10:02:50;18.27;;;12.35;;
76155;SDS011;64906;51.290;7.348;2023-04-30T10:05:16;20.17;;;13.57;;
76155;SDS011;64906;51.290;7.348;2023-04-30T10:07:42;16.98;;;11.93;;
76155;SDS011;64906;51.290;7.348;2023-04-30T10:10:09;17.42;;;11.88;;
76155;SDS011;64906;51.290;7.348;2023-04-30T10:12:48;18.13;;;11.68;;
76155;SDS011;64906;51.290;7.348;2023-04-30T10:15:24;21.25;;;12.20;;
76155;SDS011;64906;51.290;7.348;2023-04-30T10:18:28;17.70;;;11.55;;
76155;SDS011;64906;51.290;7.348;2023-04-30T10:20:49;18.23;;;12.75;;
76155;SDS011;64906;51.290;7.348;2023-04-30T10:23:19;19.92;;;12.18;;
76155;SDS011;64906;51.290;7.348;2023-04-30T10:25:45;17.65;;;11.60;;
76155;SDS011;64906;51.290;7.348;2023-04-30T10:28:11;17.45;;;11.57;;
76155;SDS011;64906;51.290;7.348;2023-04-30T10:30:37;17.67;;;11.43;;
76155;SDS011;64906;51.290;7.348;2023-04-30T10:33:12;17.70;;;11.13;;
76155;SDS011;64906;51.290;7.348;2023-04-30T10:35:50;17.33;;;11.38;;
76155;SDS011;64906;51.290;7.348;2023-04-30T10:38:21;18.67;;;12.25;;
76155;SDS011;64906;51.290;7.348;2023-04-30T10:41:00;16.33;;;11.02;;
76155;SDS011;64906;51.290;7.348;2023-04-30T10:43:28;18.17;;;12.77;;
76155;SDS011;64906;51.290;7.348;2023-04-30T10:45:58;30.30;;;19.65;;
76155;SDS011;64906;51.290;7.348;2023-04-30T10:48:23;33.30;;;20.58;;
76155;SDS011;64906;51.290;7.348;2023-04-30T10:50:51;33.70;;;21.83;;
76155;SDS011;64906;51.290;7.348;2023-04-30T10:53:19;33.83;;;21.17;;
76155;SDS011;64906;51.290;7.348;2023-04-30T10:55:47;32.03;;;20.25;;
76155;SDS011;64906;51.290;7.348;2023-04-30T10:58:24;31.92;;;22.55;;
76155;SDS011;64906;51.290;7.348;2023-04-30T11:00:59;34.13;;;20.55;;
76155;SDS011;64906;51.290;7.348;2023-04-30T11:03:29;32.55;;;20.92;;
76155;SDS011;64906;51.290;7.348;2023-04-30T11:05:56;32.15;;;20.45;;
76155;SDS011;64906;51.290;7.348;2023-04-30T11:08:35;29.58;;;19.55;;
76155;SDS011;64906;51.290;7.348;2023-04-30T11:11:01;32.40;;;21.05;;
76155;SDS011;64906;51.290;7.348;2023-04-30T11:13:34;31.02;;;20.77;;
76155;SDS011;64906;51.290;7.348;2023-04-30T11:16:04;30.48;;;19.38;;
76155;SDS011;64906;51.290;7.348;2023-04-30T11:18:29;29.10;;;19.42;;
76155;SDS011;64906;51.290;7.348;2023-04-30T11:20:56;28.85;;;19.92;;
76155;SDS011;64906;51.290;7.348;2023-04-30T11:23:22;32.63;;;19.80;;
76155;SDS011;64906;51.290;7.348;2023-04-30T11:25:48;30.30;;;20.05;;
76155;SDS011;64906;51.290;7.348;2023-04-30T11:28:22;31.25;;;19.63;;
76155;SDS011;64906;51.290;7.348;2023-04-30T11:30:57;28.92;;;19.58;;
76155;SDS011;64906;51.290;7.348;2023-04-30T11:33:27;28.33;;;18.75;;
76155;SDS011;64906;51.290;7.348;2023-04-30T11:35:54;28.60;;;20.33;;
76155;SDS011;64906;51.290;7.348;2023-04-30T11:38:25;27.92;;;18.77;;
76155;SDS011;64906;51.290;7.348;2023-04-30T11:40:52;28.92;;;18.98;;
76155;SDS011;64906;51.290;7.348;2023-04-30T11:43:22;26.98;;;18.30;;
76155;SDS011;64906;51.290;7.348;2023-04-30T11:46:09;30.35;;;20.25;;
76155;SDS011;64906;51.290;7.348;2023-04-30T11:48:37;27.38;;;17.98;;
76155;SDS011;64906;51.290;7.348;2023-04-30T11:51:04;27.55;;;18.40;;
76155;SDS011;64906;51.290;7.348;2023-04-30T11:53:31;28.30;;;19.33;;
76155;SDS011;64906;51.290;7.348;2023-04-30T11:56:00;28.58;;;19.65;;
76155;SDS011;64906;51.290;7.348;2023-04-30T11:58:26;27.60;;;18.13;;
76155;SDS011;64906;51.290;7.348;2023-04-30T12:00:52;31.23;;;21.08;;
76155;SDS011;64906;51.290;7.348;2023-04-30T12:03:18;33.80;;;23.45;;
76155;SDS011;64906;51.290;7.348;2023-04-30T12:05:44;38.92;;;25.00;;
76155;SDS011;64906;51.290;7.348;2023-04-30T12:08:10;38.38;;;27.38;;
76155;SDS011;64906;51.290;7.348;2023-04-30T12:10:37;42.83;;;29.58;;
76155;SDS011;64906;51.290;7.348;2023-04-30T12:13:02;42.08;;;27.98;;
76155;SDS011;64906;51.290;7.348;2023-04-30T12:15:27;45.33;;;28.37;;
76155;SDS011;64906;51.290;7.348;2023-04-30T12:17:57;45.35;;;29.80;;
76155;SDS011;64906;51.290;7.348;2023-04-30T12:20:24;45.42;;;30.38;;
76155;SDS011;64906;51.290;7.348;2023-04-30T12:22:52;47.05;;;31.30;;
76155;SDS011;64906;51.290;7.348;2023-04-30T12:25:18;50.28;;;31.38;;
76155;SDS011;64906;51.290;7.348;2023-04-30T12:27:45;44.85;;;30.13;;
76155;SDS011;64906;51.290;7.348;2023-04-30T12:30:12;47.20;;;31.90;;
76155;SDS011;64906;51.290;7.348;2023-04-30T12:32:44;45.05;;;30.70;;
76155;SDS011;64906;51.290;7.348;2023-04-30T12:35:17;46.55;;;31.10;;
76155;SDS011;64906;51.290;7.348;2023-04-30T12:37:48;49.28;;;34.05;;
76155;SDS011;64906;51.290;7.348;2023-04-30T12:40:16;43.75;;;29.02;;
76155;SDS011;64906;51.290;7.348;2023-04-30T12:42:43;49.25;;;30.65;;
76155;SDS011;64906;51.290;7.348;2023-04-30T12:45:11;42.25;;;29.02;;
76155;SDS011;64906;51.290;7.348;2023-04-30T12:47:37;43.45;;;31.33;;
76155;SDS011;64906;51.290;7.348;2023-04-30T12:50:13;42.63;;;28.65;;
76155;SDS011;64906;51.290;7.348;2023-04-30T12:52:39;43.97;;;29.63;;
76155;SDS011;64906;51.290;7.348;2023-04-30T12:55:17;41.50;;;28.50;;
76155;SDS011;64906;51.290;7.348;2023-04-30T13:03:27;44.65;;;28.70;;
76155;SDS011;64906;51.290;7.348;2023-04-30T13:05:52;39.20;;;26.93;;
76155;SDS011;64906;51.290;7.348;2023-04-30T13:08:18;39.03;;;26.42;;
76155;SDS011;64906;51.290;7.348;2023-04-30T13:10:45;38.85;;;26.38;;
76155;SDS011;64906;51.290;7.348;2023-04-30T13:13:11;41.60;;;26.90;;
76155;SDS011;64906;51.290;7.348;2023-04-30T13:15:37;38.88;;;25.95;;
76155;SDS011;64906;51.290;7.348;2023-04-30T13:18:04;38.53;;;26.52;;
76155;SDS011;64906;51.290;7.348;2023-04-30T13:20:32;36.55;;;27.00;;
76155;SDS011;64906;51.290;7.348;2023-04-30T13:22:57;39.93;;;26.43;;
76155;SDS011;64906;51.290;7.348;2023-04-30T13:25:23;40.37;;;26.10;;
76155;SDS011;64906;51.290;7.348;2023-04-30T13:27:48;40.77;;;26.40;;
76155;SDS011;64906;51.290;7.348;2023-04-30T13:30:13;36.70;;;24.93;;
76155;SDS011;64906;51.290;7.348;2023-04-30T13:32:39;36.70;;;24.77;;
76155;SDS011;64906;51.290;7.348;2023-04-30T13:35:04;46.38;;;27.48;;
76155;SDS011;64906;51.290;7.348;2023-04-30T13:37:31;43.03;;;28.35;;
76155;SDS011;64906;51.290;7.348;2023-04-30T13:39:56;42.55;;;27.73;;
76155;SDS011;64906;51.290;7.348;2023-04-30T13:42:22;42.35;;;27.25;;
76155;SDS011;64906;51.290;7.348;2023-04-30T13:44:48;42.95;;;28.05;;
76155;SDS011;64906;51.290;7.348;2023-04-30T13:47:14;44.90;;;29.33;;
76155;SDS011;64906;51.290;7.348;2023-04-30T13:49:40;44.83;;;28.63;;
76155;SDS011;64906;51.290;7.348;2023-04-30T13:52:06;49.90;;;29.85;;
76155;SDS011;64906;51.290;7.348;2023-04-30T13:54:31;42.10;;;28.75;;
76155;SDS011;64906;51.290;7.348;2023-04-30T13:56:57;42.83;;;31.35;;
76155;SDS011;64906;51.290;7.348;2023-04-30T13:59:26;41.63;;;28.30;;
76155;SDS011;64906;51.290;7.348;2023-04-30T14:01:52;42.63;;;28.40;;
76155;SDS011;64906;51.290;7.348;2023-04-30T14:04:18;43.03;;;28.63;;
76155;SDS011;64906;51.290;7.348;2023-04-30T14:06:43;43.75;;;28.13;;
76155;SDS011;64906;51.290;7.348;2023-04-30T14:09:09;40.95;;;26.95;;
76155;SDS011;64906;51.290;7.348;2023-04-30T14:11:35;40.95;;;26.90;;
76155;SDS011;64906;51.290;7.348;2023-04-30T14:14:00;40.08;;;27.98;;
76155;SDS011;64906;51.290;7.348;2023-04-30T14:16:25;39.03;;;26.60;;
76155;SDS011;64906;51.290;7.348;2023-04-30T14:18:51;37.70;;;26.08;;
76155;SDS011;64906;51.290;7.348;2023-04-30T14:21:16;37.47;;;26.30;;
76155;SDS011;64906;51.290;7.348;2023-04-30T14:23:42;37.80;;;26.13;;
76155;SDS011;64906;51.290;7.348;2023-04-30T14:26:10;41.05;;;25.48;;
76155;SDS011;64906;51.290;7.348;2023-04-30T14:28:36;37.33;;;25.63;;
76155;SDS011;64906;51.290;7.348;2023-04-30T14:31:01;37.03;;;24.80;;
76155;SDS011;64906;51.290;7.348;2023-04-30T14:33:27;38.70;;;25.98;;
76155;SDS011;64906;51.290;7.348;2023-04-30T14:35:53;37.97;;;25.48;;
76155;SDS011;64906;51.290;7.348;2023-04-30T14:38:18;33.33;;;23.27;;
76155;SDS011;64906;51.290;7.348;2023-04-30T14:40:44;37.28;;;24.10;;
76155;SDS011;64906;51.290;7.348;2023-04-30T14:43:10;34.85;;;23.30;;
76155;SDS011;64906;51.290;7.348;2023-04-30T14:45:35;35.05;;;23.63;;
76155;SDS011;64906;51.290;7.348;2023-04-30T14:48:01;33.63;;;23.50;;
76155;SDS011;64906;51.290;7.348;2023-04-30T14:50:26;34.53;;;22.73;;
76155;SDS011;64906;51.290;7.348;2023-04-30T14:52:51;36.40;;;23.17;;
76155;SDS011;64906;51.290;7.348;2023-04-30T14:55:17;33.92;;;23.13;;
76155;SDS011;64906;51.290;7.348;2023-04-30T14:57:42;33.38;;;22.92;;
76155;SDS011;64906;51.290;7.348;2023-04-30T15:00:08;32.65;;;21.95;;
76155;SDS011;64906;51.290;7.348;2023-04-30T15:02:34;33.08;;;22.08;;